• Join FlightAware (Why Join?)
  • Login
  • US Flag 
06:18PM EDT


 

Airport Tracker/Info


-or-


 

Live Flight TrackerFlight Track Log ✈ EJA101 ✈ 05-May-2013 ✈ KPBI - KTEB

Flight Track Log - Related Links

Times and Time Zones

All times are in EDT time to prevent confusion due to time zone crossing. See the EJA101 flight status page for this flight to view local times or setup timezone preferences in your user account.

Time Position Orientation Groundspeed Altitude Reporting Facility
EDT Latitude Longitude Course Direction KTS MPH feet Rate Location/Type
04:01PM 26.7569 -80.1742 39° Northeast 211 243 3,700  Level Miami Center
04:03PM 26.8553 -80.0839 39° Northeast 241 277 10,800 3,060 Climbing Miami Center
04:04PM 26.8744 -79.9725 79° East 351 404 13,000 2,100 Climbing Miami Center
04:05PM 26.8981 -79.8406 79° East 402 463 15,000 1,020 Climbing Miami Center
04:06PM 26.9386 -79.6925 73° East 440 506 15,100 1,140 Climbing Miami Center
04:07PM 27.0097 -79.5775 55° Northeast 441 507 17,300 2,400 Climbing Miami Center
04:08PM 27.0869 -79.4581 54° Northeast 457 526 19,900 2,460 Climbing Miami Center
04:09PM 27.1600 -79.3453 54° Northeast 480 552 22,300 1,500 Climbing Miami Center
04:10PM 27.2458 -79.2139 54° Northeast 504 580 23,000 300 Climbing Miami Center
04:11PM 27.3378 -79.0686 55° Northeast 518 596 23,000 660 Level Miami Center
04:12PM 27.4333 -78.9556 46° Northeast 513 590 24,400 1,800 Climbing Miami Center
04:13PM 27.5569 -78.9322 10° North 482 555 26,700 2,100 Climbing Miami Center
04:14PM 27.6994 -78.9089 North 501 577 28,700 2,280 Climbing Miami Center
04:15PM 27.8625 -78.8861 North 525 604 31,300 2,100 Climbing Miami Center
04:16PM 28.0069 -78.8675 North 525 604 33,000 2,100 Climbing Miami Center
04:17PM 28.1594 -78.8467 North 525 604 35,600 2,100 Climbing Miami Center
04:19PM 28.4419 -78.8044 North 519 597 39,400 1,620 Climbing Miami Center
04:20PM 28.5883 -78.7856 North 525 604 40,500 720 Climbing Miami Center
04:21PM 28.7264 -78.7644 North 520 598 40,900 240 Climbing Miami Center
04:22PM 28.8747 -78.7431 North 520 598 41,000  Climbing Miami Center
04:23PM 29.0169 -78.7242 North 520 598 41,000 -60 Level Miami Center
04:24PM 29.1611 -78.7028 North 525 604 40,900 -60 Descending Miami Center
04:25PM 29.2992 -78.6767 North 515 593 40,900  Level Miami Center
04:26PM 29.4517 -78.6625 North 521 600 41,000  Climbing Miami Center
04:27PM 29.5958 -78.6411 North 517 595 40,900 -60 Descending Miami Center
04:28PM 29.7442 -78.6244 23° Northeast 523 602 40,900  Level Miami Center
04:29PM 29.8903 -78.6053 North 523 602 41,000  Climbing Miami Center
04:30PM 30.0119 -78.5778 11° North 539 620 40,900 -60 Descending Jacksonville Center
04:31PM 30.1450 -78.5644 North 522 601 40,900  Level Jacksonville Center
04:32PM 30.2964 -78.5383 North 510 587 41,000  Climbing Jacksonville Center
04:33PM 30.4461 -78.5197 North 522 601 41,000  Level Jacksonville Center
04:34PM 30.5914 -78.4936 North 522 601 41,000  Level Jacksonville Center
04:35PM 30.7344 -78.4678 North 522 601 41,000  Level Jacksonville Center
04:37PM 30.9016 -78.4301 North  Level FlightAware Approximate
04:37PM 31.0294 -78.4222 North 528 608 41,000  Level Jacksonville Center
04:38PM 31.1747 -78.4008 North 528 608 40,900  Descending Jacksonville Center
04:39PM 31.3258 -78.3694 10° North 533 613 41,000  Climbing Jacksonville Center
04:40PM 31.4714 -78.3475 North 533 613 41,000  Level Jacksonville Center
04:41PM 31.6144 -78.3261 North 533 613 41,000 -60 Level Jacksonville Center
04:42PM 31.7619 -78.3017 North 533 613 40,900 -60 Descending Jacksonville Center
04:43PM 31.9072 -78.2772 North 533 613 40,900  Level Jacksonville Center
04:44PM 32.0525 -78.2553 North 533 613 41,000  Climbing Jacksonville Center
04:46PM 32.3406 -78.2039 North 523 602 40,900  Descending Jacksonville Center
04:47PM 32.4881 -78.1814 North 523 602 41,000  Climbing Jacksonville Center
04:48PM 32.6311 -78.1542 North 518 596 41,000 -60 Level Jacksonville Center
04:49PM 32.7742 -78.1344 North 518 596 40,900  Descending Jacksonville Center
04:50PM 32.9172 -78.1094 North 518 596 41,000  Climbing Jacksonville Center
04:51PM 33.0606 -78.0869 North 518 596 41,000  Level Jacksonville Center
04:52PM 33.2036 -78.0644 North 518 596 41,000  Level Jacksonville Center
04:53PM 33.3467 -78.0417 North 518 596 41,000 -120 Level Jacksonville Center
04:54PM 33.4253 -78.0300 North 514 592 40,900  Descending Washington Center
04:55PM 33.5675 -78.0042 North 509 586 41,000  Climbing Washington Center
04:56PM 33.7097 -77.9833 North 509 586 41,000 -60 Level Washington Center
04:57PM 33.8522 -77.9575 North 509 586 40,900  Descending Washington Center
04:58PM 33.9864 -77.9311 North 515 593 41,000  Climbing Washington Center
04:59PM 34.1139 -77.9147 North 498 573 41,000  Level Washington Center
05:00PM 34.2458 -77.8908 North 481 554 41,000  Level Washington Center
05:01PM 34.3794 -77.8769 North 475 547 41,000  Level Washington Center
05:02PM 34.5111 -77.8756 360° North 475 547 41,000  Level Washington Center
05:03PM 34.6403 -77.8742 North 468 539 41,000  Level Washington Center
05:04PM 34.7656 -77.8725 North 457 526 41,000  Level Washington Center
05:05PM 34.9056 -77.8664 North 457 526 41,000  Level Washington Center
05:06PM 35.0328 -77.8647 North 457 526 41,000  Level Washington Center
05:07PM 35.1622 -77.8608 North 457 526 41,000  Level Washington Center
05:08PM 35.2936 -77.8594 360° North 457 526 41,000  Level Washington Center
05:09PM 35.4211 -77.8581 North 457 526 41,000  Level Washington Center
05:10PM 35.5483 -77.8564 North 457 526 41,000  Level Washington Center
05:11PM 35.6778 -77.8550 360° North 457 526 41,000  Level Washington Center
05:12PM 35.8031 -77.8533 North 457 526 41,000  Level Washington Center
05:13PM 35.9344 -77.8494 North 457 526 41,000  Level Washington Center
05:14PM 36.0347 -77.8522 359° North 457 526 41,000  Level Washington Center
05:15PM 36.1850 -77.8489 North 457 526 41,000  Level Washington Center
05:16PM 36.3164 -77.8475 360° North 457 526 41,000  Level Washington Center
05:17PM 36.4292 -77.8456 North 457 526 41,000  Level Washington Center
05:18PM 36.5583 -77.8442 360° North 452 520 41,000  Level Washington Center
05:19PM 36.6836 -77.8425 North 452 520 41,000  Level Washington Center
05:20PM 36.8108 -77.8411 North 457 526 41,000  Level Washington Center
05:21PM 36.9425 -77.8397 360° North 462 532 41,000  Level Washington Center
05:22PM 37.0697 -77.8356 North 457 526 41,000  Level Washington Center
05:23PM 37.1956 -77.8056 11° North 457 526 41,000  Level Washington Center
05:24PM 37.3181 -77.7175 30° Northeast 464 534 41,000  Level Washington Center
05:26PM 37.5650 -77.5489 28° Northeast 497 572 41,000  Level Washington Center
05:27PM 37.6875 -77.4550 31° Northeast 508 585 41,000  Level Washington Center
05:28PM 37.7997 -77.3447 38° Northeast 508 585 41,000  Level Washington Center
05:29PM 37.9117 -77.2367 37° Northeast 508 585 41,000 -300 Level Washington Center
05:30PM 38.0258 -77.1286 37° Northeast 508 585 40,400 -1,680 Descending Washington Center
05:32PM 38.2325 -76.9292 37° Northeast 474 545 36,100 -2,280 Descending Washington Center
05:33PM 38.3400 -76.8281 36° Northeast 451 519 33,800 -2,160 Descending Washington Center
05:34PM 38.4411 -76.7289 38° Northeast 445 512 31,800 -2,040 Descending Washington Center
05:35PM 38.5442 -76.6297 37° Northeast 445 512 29,700 -1,980 Descending Washington Center
05:36PM 38.6408 -76.5353 37° Northeast 445 512 27,800 -1,860 Descending Washington Center
05:37PM 38.7267 -76.4539 36° Northeast 413 475 26,100 -1,200 Descending Washington Center
05:38PM 38.8189 -76.4042 23° Northeast 384 442 25,500 -960 Descending Washington Center
05:39PM 38.9089 -76.3572 22° Northeast 359 413 24,200 -780 Descending Washington Center
05:40PM 38.9986 -76.3100 22° Northeast 349 402 24,000 -120 Descending Washington Center
05:42PM 39.1793 -76.1473 35° Northeast  Level FlightAware Approximate
05:42PM 39.1681 -76.2072 35° Northeast 337 388 24,000  Level Washington Center
05:43PM 39.2372 -76.1328 40° Northeast 337 388 24,000 -60 Level Washington Center
05:44PM 39.3106 -76.0611 37° Northeast 342 394 23,900 -840 Descending Washington Center
05:45PM 39.3817 -75.9861 39° Northeast 337 388 22,400 -1,620 Descending Washington Center
05:46PM 39.4569 -75.9167 35° Northeast 332 382 20,700 -1,740 Descending Washington Center
05:47PM 39.5300 -75.8472 36° Northeast 327 376 18,900 -1,800 Descending Washington Center
05:49PM 39.7000 -75.7000 34° Northeast 315 362 15,200 -1,740 Descending Philadelphia TRACON
05:50PM 39.7667 -75.6333 38° Northeast 311 358 13,700 -1,080 Descending Philadelphia TRACON
05:51PM 39.8333 -75.5667 38° Northeast 301 346 13,100 -360 Descending Philadelphia TRACON
05:52PM 39.9167 -75.5500 North 307 353 13,000  Descending Philadelphia TRACON
05:53PM 40.0000 -75.5667 351° North 312 359 13,100  Climbing Philadelphia TRACON
05:54PM 40.0833 -75.6000 343° North 312 359 13,100 -240 Level Philadelphia TRACON
05:55PM 40.1500 -75.5333 37° Northeast 291 335 12,700 -720 Descending Philadelphia TRACON
05:57PM 40.2000 -75.3333 72° East 297 342 11,100 -600 Descending Philadelphia TRACON
05:58PM 40.2333 -75.2500 62° Northeast 290 334 11,100 -900 Level Philadelphia TRACON
06:00PM 40.3505 -75.0276 49° Northeast  Level Estimated
06:01PM 40.3667 -75.0333 49° Northeast 283 326 7,900  Level New York TRACON
06:02PM 40.4333 -74.9667 37° Northeast 275 316 6,900 -1,380 Descending New York TRACON
06:03PM 40.4833 -74.8833 52° Northeast 266 306 5,100 -1,500 Descending New York TRACON
06:04PM 40.5167 -74.8333 49° Northeast 256 295 4,000 -600 Descending New York TRACON
06:05PM 40.5667 -74.7500 52° Northeast 256 295 4,000  Level New York TRACON
06:06PM 40.6333 -74.7000 30° Northeast 257 296 4,000  Level New York TRACON
06:07PM 40.7000 -74.6667 21° North 262 302 4,000  Level New York TRACON
06:09PM 40.8167 -74.5667 33° Northeast 251 289 4,000 -120 Level New York TRACON
06:10PM 40.8500 -74.5000 57° Northeast 246 283 3,800 -540 Descending New York TRACON
06:11PM 40.9000 -74.4333 45° Northeast 246 283 3,000 -420 Descending New York TRACON
06:12PM 40.9500 -74.3667 45° Northeast 256 295 3,000  Level New York TRACON
06:13PM 40.9667 -74.2833 75° East 215 247 3,000 -60 Level New York TRACON
06:14PM 40.9833 -74.2167 72° East 179 206 2,900 -540 Descending New York TRACON
06:15PM 41.0000 -74.1500 72° East 173 199 2,000 -480 Descending New York TRACON
06:16PM 41.0167 -74.1000 66° East 177 204 2,000  Level New York TRACON
06:17PM 40.9667 -74.0667 153° Southeast 165 190 2,000 -300 Level New York TRACON
06:18PM 40.9333 -74.0500 159° South 170 196 1,500 -660 Descending New York TRACON
06:19PM 40.8833 -74.0500 180° South 122 140 700 -840 Descending New York TRACON